San Saba, Texas
Current Conditions -  °F | °C
As of 3:15 PM on Sunday 23 Nov 2014 (Local Time) from KAQO Reporting Station
Clear Clear  
Wind Chill: 79°   Ceiling: Unl
Heat Index: 79°   Visibility: 10mi
Dew Point: 37°   Wind: 14mph
Humidity: 23%   Direction: 290°WNW
Pressure: 29.58"   Gusts: 21mph
Location:  31.2°N, 98.72°W
Report Text: KAQO 232115Z AUTO 29012G18KT 10SM CLR 26/03 A2958 RMK AO2
Loading
Personal Weather Stations






























Interactive Weather Map New forecast layout! Learn more

10-Day Weather Forecast

Advertisements
Track Severe Weather on mobile